Time;durP1;ratioP1;P1;durP2;ratioP2;P2;SDS_P1;SDS_P2;PMS_P1;PMS_P2;Temp;Humidity;BMP_temperature;BMP_pressure;BME280_temperature;BME280_humidity;BME280_pressure;Samples;Min_cycle;Max_cycle;Signal;HPM_P1;HPM_P2
2021/07/17 00:01:59;;;;;;;32.97;8.48;;;15.70;99.90;;;;;;5054268;28;20052;-90
2021/07/17 00:04:27;;;;;;;32.65;7.47;;;15.70;99.90;;;;;;5038103;28;20405;-90
2021/07/17 00:06:55;;;;;;;29.15;7.80;;;15.70;99.90;;;;;;5052949;28;20046;-91
2021/07/17 00:09:23;;;;;;;30.00;7.55;;;15.70;99.90;;;;;;5037369;28;20042;-90
2021/07/17 00:11:49;;;;;;;34.60;8.52;;;15.70;99.90;;;;;;5053444;28;20041;-91
2021/07/17 00:14:16;;;;;;;28.73;7.72;;;15.70;99.90;;;;;;5033184;28;20053;-87
2021/07/17 00:16:43;;;;;;;29.73;7.72;;;15.70;99.90;;;;;;5050054;28;20053;-91
2021/07/17 00:19:11;;;;;;;27.52;7.32;;;15.70;99.90;;;;;;5050197;28;20087;-91
2021/07/17 00:21:38;;;;;;;36.60;9.15;;;15.70;99.90;;;;;;5033180;28;20095;-91
2021/07/17 00:24:05;;;;;;;29.88;8.35;;;15.70;99.90;;;;;;5033840;28;20034;-90
2021/07/17 00:26:32;;;;;;;32.63;7.53;;;15.70;99.90;;;;;;5049471;28;20046;-90
2021/07/17 00:28:58;;;;;;;29.60;8.45;;;15.60;99.90;;;;;;5033575;28;20405;-89
2021/07/17 00:31:25;;;;;;;25.80;8.00;;;15.60;99.90;;;;;;5033077;28;20479;-90
2021/07/17 00:33:52;;;;;;;30.35;8.20;;;15.60;99.90;;;;;;5033443;28;20053;-91
2021/07/17 00:36:20;;;;;;;26.38;7.90;;;15.60;99.90;;;;;;5016561;28;20061;-91
2021/07/17 00:38:46;;;;;;;31.83;8.07;;;15.60;99.90;;;;;;5050812;28;20049;-91
2021/07/17 00:41:13;;;;;;;28.52;7.78;;;15.60;99.90;;;;;;5049988;28;20044;-93
2021/07/17 00:43:40;;;;;;;23.77;7.07;;;15.50;99.90;;;;;;5049027;28;20112;-91
2021/07/17 00:46:07;;;;;;;27.67;7.63;;;15.50;99.90;;;;;;5032652;28;20053;-92
2021/07/17 00:48:34;;;;;;;28.23;7.20;;;15.50;99.90;;;;;;5032657;28;20045;-92
2021/07/17 00:51:01;;;;;;;29.40;8.00;;;15.50;99.90;;;;;;5033189;28;20165;-90
2021/07/17 00:53:28;;;;;;;28.23;6.88;;;15.50;99.90;;;;;;5032692;28;20160;-91
2021/07/17 00:55:56;;;;;;;27.20;7.10;;;15.50;99.90;;;;;;5033114;28;20068;-91
2021/07/17 00:58:28;;;;;;;25.63;6.93;;;15.50;99.90;;;;;;5048994;28;20057;-91
2021/07/17 01:00:57;;;;;;;25.05;7.55;;;15.40;99.90;;;;;;5050538;28;20053;-91
2021/07/17 01:03:27;;;;;;;30.00;7.22;;;15.40;99.90;;;;;;5032184;28;20042;-91
2021/07/17 01:05:55;;;;;;;27.95;7.47;;;15.40;99.90;;;;;;5050330;28;20048;-92
2021/07/17 01:08:22;;;;;;;27.17;6.88;;;15.40;99.90;;;;;;5049297;28;20042;-88
2021/07/17 01:10:49;;;;;;;21.65;7.10;;;15.30;99.90;;;;;;5032369;28;20042;-91
2021/07/17 01:13:16;;;;;;;28.98;6.95;;;15.30;99.90;;;;;;5033434;28;20038;-93
2021/07/17 01:15:43;;;;;;;15.40;6.40;;;15.30;99.90;;;;;;5016285;28;20133;-91
2021/07/17 01:18:10;;;;;;;20.05;5.85;;;15.30;99.90;;;;;;5032806;28;20057;-91
2021/07/17 01:20:38;;;;;;;26.88;6.20;;;15.20;99.90;;;;;;5016080;28;20482;-92
2021/07/17 01:23:06;;;;;;;24.75;6.65;;;15.20;99.90;;;;;;5032564;28;20065;-92
2021/07/17 01:25:34;;;;;;;25.58;6.57;;;15.20;99.90;;;;;;5031722;28;20414;-90
2021/07/17 01:28:02;;;;;;;21.65;6.60;;;15.20;99.90;;;;;;5016473;28;20042;-92
2021/07/17 01:30:33;;;;;;;24.20;6.75;;;15.20;99.90;;;;;;5015208;28;20050;-91
2021/07/17 01:33:00;;;;;;;24.83;6.55;;;15.20;99.90;;;;;;5032024;28;20509;-91
2021/07/17 01:35:27;;;;;;;23.48;6.88;;;15.20;99.90;;;;;;5015959;28;20099;-89
2021/07/17 01:37:55;;;;;;;20.95;6.15;;;15.20;99.90;;;;;;5015910;28;20048;-91
2021/07/17 01:40:22;;;;;;;22.52;6.43;;;15.20;99.90;;;;;;5048694;28;20045;-91
2021/07/17 01:42:54;;;;;;;22.60;6.18;;;15.20;99.90;;;;;;5031802;28;20042;-91
2021/07/17 01:45:24;;;;;;;29.70;6.72;;;15.20;99.90;;;;;;5032325;28;20050;-92
2021/07/17 01:47:52;;;;;;;19.45;6.38;;;15.10;99.90;;;;;;5032306;28;20041;-91
2021/07/17 01:50:19;;;;;;;21.52;6.10;;;15.20;99.90;;;;;;5032365;28;20045;-90
2021/07/17 01:52:50;;;;;;;22.38;6.63;;;15.10;99.90;;;;;;5031483;28;20046;-91
2021/07/17 01:55:17;;;;;;;21.73;6.07;;;15.20;99.90;;;;;;5032155;28;20050;-90
2021/07/17 01:57:46;;;;;;;22.80;7.00;;;15.10;99.90;;;;;;5015170;28;20049;-91
2021/07/17 02:00:13;;;;;;;30.77;6.03;;;15.10;99.90;;;;;;5031868;28;20050;-92
2021/07/17 02:02:42;;;;;;;22.55;6.20;;;15.10;99.90;;;;;;5015905;28;20061;-92
2021/07/17 02:05:09;;;;;;;27.70;6.22;;;15.10;99.90;;;;;;5049457;28;20052;-90
2021/07/17 02:07:36;;;;;;;22.25;6.78;;;15.10;99.90;;;;;;5048874;28;20069;-91
2021/07/17 02:10:10;;;;;;;23.65;6.30;;;15.10;99.90;;;;;;5015745;28;20049;-91
2021/07/17 02:12:59;;;;;;;24.73;5.95;;;15.10;99.90;;;;;;5031575;28;20042;-90
2021/07/17 02:15:27;;;;;;;25.70;6.22;;;15.10;99.90;;;;;;5048095;28;20049;-91
2021/07/17 02:17:57;;;;;;;24.77;6.45;;;15.10;99.90;;;;;;5051388;28;20041;-93
2021/07/17 02:20:25;;;;;;;26.98;6.20;;;15.10;99.90;;;;;;5035539;28;20052;-92
2021/07/17 02:22:52;;;;;;;19.52;5.60;;;15.10;99.90;;;;;;5034782;28;20053;-91
2021/07/17 02:25:19;;;;;;;20.50;6.00;;;15.00;99.90;;;;;;5034667;28;20050;-91
2021/07/17 02:27:46;;;;;;;22.98;5.95;;;15.00;99.90;;;;;;5034775;28;20041;-92
2021/07/17 02:30:13;;;;;;;23.92;6.20;;;15.10;99.90;;;;;;5051590;28;20129;-91
2021/07/17 02:32:40;;;;;;;22.02;5.78;;;15.10;99.90;;;;;;5018870;28;20042;-92
2021/07/17 02:35:07;;;;;;;16.98;5.18;;;15.10;99.90;;;;;;5035220;28;20453;-92
2021/07/17 02:37:34;;;;;;;24.13;5.90;;;15.10;99.90;;;;;;5034551;28;20045;-92
2021/07/17 02:40:04;;;;;;;22.38;5.65;;;15.20;99.90;;;;;;5051329;28;20056;-91
2021/07/17 02:42:33;;;;;;;20.10;5.93;;;15.20;99.90;;;;;;5068810;28;20552;-93
2021/07/17 02:45:01;;;;;;;26.10;5.13;;;15.20;99.90;;;;;;5035845;28;20084;-93
2021/07/17 02:47:28;;;;;;;22.90;5.30;;;15.20;99.90;;;;;;5051204;28;20466;-93
2021/07/17 02:49:54;;;;;;;21.90;5.60;;;15.20;99.90;;;;;;5018535;28;20129;-93
2021/07/17 02:52:21;;;;;;;27.95;5.65;;;15.20;99.90;;;;;;5035245;28;20045;-93
2021/07/17 02:54:48;;;;;;;16.23;5.30;;;15.30;99.90;;;;;;5034592;28;20133;-93
2021/07/17 02:57:15;;;;;;;21.67;5.60;;;15.30;99.90;;;;;;5018814;28;20057;-92
2021/07/17 02:59:42;;;;;;;26.35;5.75;;;15.30;99.90;;;;;;5018280;28;20041;-92
2021/07/17 03:02:08;;;;;;;23.33;5.60;;;15.30;99.90;;;;;;5051117;28;20045;-91
2021/07/17 03:04:35;;;;;;;26.52;5.18;;;15.30;99.90;;;;;;5034503;28;20069;-87
2021/07/17 03:07:02;;;;;;;21.02;5.47;;;15.30;99.90;;;;;;5034222;28;20048;-90
2021/07/17 03:09:29;;;;;;;19.08;5.50;;;15.20;99.90;;;;;;5034858;28;20102;-91
2021/07/17 03:11:56;;;;;;;24.42;5.30;;;15.20;99.90;;;;;;5018212;28;20132;-91
2021/07/17 03:14:24;;;;;;;18.23;5.68;;;15.20;99.90;;;;;;5015046;28;20445;-90
2021/07/17 03:16:51;;;;;;;21.90;5.20;;;15.20;99.90;;;;;;5014711;28;20061;-91
2021/07/17 03:19:18;;;;;;;28.77;6.13;;;15.20;99.90;;;;;;5014845;28;20056;-90
2021/07/17 03:21:45;;;;;;;27.92;5.72;;;15.30;99.90;;;;;;5014334;28;20102;-90
2021/07/17 03:24:12;;;;;;;22.48;5.70;;;15.40;99.90;;;;;;5014853;28;20041;-90
2021/07/17 03:26:38;;;;;;;26.88;5.40;;;15.50;99.90;;;;;;5014613;28;20554;-89
2021/07/17 03:29:05;;;;;;;24.58;5.03;;;15.60;99.90;;;;;;5014443;28;20074;-91
2021/07/17 03:31:32;;;;;;;19.33;5.40;;;15.70;99.90;;;;;;4998804;28;20049;-92
2021/07/17 03:34:00;;;;;;;20.45;4.82;;;15.80;99.90;;;;;;5032573;28;20073;-93
2021/07/17 03:36:28;;;;;;;21.85;5.13;;;15.90;99.90;;;;;;5018704;28;20069;-92
2021/07/17 03:39:00;;;;;;;16.80;5.45;;;16.00;99.90;;;;;;5019763;28;20546;-90
2021/07/17 03:41:33;;;;;;;22.35;5.15;;;16.10;99.90;;;;;;5019944;28;20050;-90
2021/07/17 03:44:10;;;;;;;21.52;5.30;;;16.20;99.90;;;;;;5020333;28;20105;-92
2021/07/17 03:46:37;;;;;;;22.10;4.93;;;16.20;99.90;;;;;;5035271;28;20052;-92
2021/07/17 03:49:03;;;;;;;25.40;5.50;;;16.30;99.90;;;;;;5018422;28;20050;-92
2021/07/17 03:51:30;;;;;;;20.95;5.03;;;16.30;99.90;;;;;;5017660;28;20050;-92
2021/07/17 03:54:00;;;;;;;18.83;5.00;;;16.30;99.90;;;;;;5049706;28;20486;-92
2021/07/17 03:56:27;;;;;;;19.77;4.93;;;16.40;99.90;;;;;;5018621;28;20050;-91
2021/07/17 03:58:56;;;;;;;19.25;4.97;;;16.40;99.90;;;;;;5018398;28;20070;-93
2021/07/17 04:01:23;;;;;;;27.58;4.85;;;16.40;99.90;;;;;;5018060;28;20046;-92
2021/07/17 04:03:51;;;;;;;23.13;5.18;;;16.40;99.90;;;;;;5017493;28;20134;-92
2021/07/17 04:06:18;;;;;;;16.48;4.75;;;16.40;99.90;;;;;;5018420;28;20045;-93
2021/07/17 04:08:44;;;;;;;20.10;5.32;;;16.40;99.90;;;;;;5017940;28;20042;-92
2021/07/17 04:11:11;;;;;;;22.08;5.00;;;16.40;99.90;;;;;;5034010;28;20046;-92
2021/07/17 04:13:38;;;;;;;24.10;5.63;;;16.50;99.90;;;;;;5017994;28;20041;-91
2021/07/17 04:16:05;;;;;;;19.33;4.93;;;16.50;99.90;;;;;;5036695;28;20379;-92
2021/07/17 04:18:32;;;;;;;21.42;4.65;;;16.50;99.90;;;;;;5021411;28;20041;-91
2021/07/17 04:20:58;;;;;;;19.35;4.45;;;16.50;99.90;;;;;;5020785;28;20506;-91
2021/07/17 04:23:26;;;;;;;22.05;4.40;;;16.50;99.90;;;;;;5037249;28;20569;-92
2021/07/17 04:25:54;;;;;;;28.85;4.57;;;16.50;99.90;;;;;;5021344;28;20049;-93
2021/07/17 04:28:20;;;;;;;27.27;4.75;;;16.60;99.90;;;;;;5046533;28;20148;-93
2021/07/17 04:30:48;;;;;;;17.85;3.88;;;16.60;99.90;;;;;;5056955;28;20095;-91
2021/07/17 04:33:14;;;;;;;25.02;5.25;;;16.70;99.90;;;;;;5056014;28;20073;-91
2021/07/17 04:35:41;;;;;;;21.25;4.47;;;16.70;99.90;;;;;;5041129;28;20107;-92
2021/07/17 04:38:08;;;;;;;15.45;4.03;;;16.70;99.90;;;;;;5056482;28;20040;-91
2021/07/17 04:40:35;;;;;;;16.10;4.15;;;16.70;99.90;;;;;;5056845;28;20051;-92
2021/07/17 04:43:03;;;;;;;21.58;4.28;;;16.70;99.90;;;;;;5056703;28;20049;-93
2021/07/17 04:45:30;;;;;;;20.42;4.07;;;16.70;99.90;;;;;;5072069;28;20052;-91
2021/07/17 04:47:57;;;;;;;20.00;4.10;;;16.80;99.90;;;;;;5040248;28;20053;-92
2021/07/17 04:50:24;;;;;;;19.20;4.10;;;16.80;99.90;;;;;;5057111;28;20060;-93
2021/07/17 04:52:50;;;;;;;24.30;4.50;;;16.80;99.90;;;;;;5056531;28;20132;-94
2021/07/17 04:55:17;;;;;;;20.10;4.15;;;16.90;99.90;;;;;;5056712;28;20532;-92
2021/07/17 04:57:44;;;;;;;19.65;4.72;;;16.90;99.90;;;;;;5040888;28;20057;-91
2021/07/17 05:00:11;;;;;;;16.33;3.80;;;17.00;99.90;;;;;;5039831;28;20049;-92
2021/07/17 05:02:49;;;;;;;19.90;4.18;;;17.00;99.90;;;;;;5040575;28;20045;-93
2021/07/17 05:05:17;;;;;;;15.90;3.95;;;17.00;99.90;;;;;;5073387;28;20052;-93
2021/07/17 05:07:45;;;;;;;20.70;4.90;;;17.10;99.90;;;;;;5056548;28;20049;-92
2021/07/17 05:10:13;;;;;;;17.92;3.80;;;17.10;99.90;;;;;;5056126;28;20048;-94
2021/07/17 05:12:41;;;;;;;19.92;3.63;;;17.10;99.90;;;;;;5072659;28;20056;-93
2021/07/17 05:15:12;;;;;;;13.43;3.58;;;17.10;99.90;;;;;;5071628;28;20064;-93
2021/07/17 05:17:39;;;;;;;16.00;4.07;;;17.20;99.90;;;;;;5071764;28;20111;-92
2021/07/17 05:20:09;;;;;;;15.45;3.40;;;17.20;99.90;;;;;;5072432;28;20116;-93
2021/07/17 05:22:36;;;;;;;14.20;3.55;;;17.30;99.90;;;;;;5089381;28;20037;-92
2021/07/17 05:25:04;;;;;;;12.15;3.42;;;17.30;99.90;;;;;;5055682;28;20053;-92
2021/07/17 05:27:31;;;;;;;17.88;3.70;;;17.40;99.90;;;;;;5088755;28;20048;-92
2021/07/17 05:29:58;;;;;;;16.67;4.07;;;17.50;99.90;;;;;;5088428;28;20517;-92
2021/07/17 05:32:25;;;;;;;18.85;4.25;;;17.50;99.90;;;;;;5055628;28;20504;-92
2021/07/17 05:34:52;;;;;;;16.58;3.63;;;17.50;99.90;;;;;;5055562;28;20057;-87
2021/07/17 05:37:18;;;;;;;13.30;3.72;;;17.50;99.90;;;;;;5072490;28;20060;-92
2021/07/17 05:39:45;;;;;;;13.77;3.50;;;17.60;99.90;;;;;;5055757;28;20459;-93
2021/07/17 05:42:12;;;;;;;20.90;3.83;;;17.60;99.90;;;;;;5039565;28;20128;-90
2021/07/17 05:44:39;;;;;;;13.18;3.47;;;17.70;99.90;;;;;;5056040;28;20124;-92
2021/07/17 05:47:06;;;;;;;13.75;3.50;;;17.80;99.90;;;;;;5055579;28;20067;-93
2021/07/17 05:49:33;;;;;;;14.27;3.63;;;17.80;99.90;;;;;;5055724;28;20040;-92
2021/07/17 05:52:00;;;;;;;12.68;3.58;;;17.90;99.90;;;;;;5071066;28;20497;-92
2021/07/17 05:54:27;;;;;;;16.30;3.97;;;17.90;99.90;;;;;;5047199;28;20049;-93
2021/07/17 05:56:53;;;;;;;14.98;3.30;;;18.00;99.90;;;;;;5034456;28;20045;-93
2021/07/17 05:59:20;;;;;;;12.63;3.08;;;18.00;99.90;;;;;;5019006;28;20057;-92
2021/07/17 06:01:47;;;;;;;16.85;4.05;;;18.00;99.90;;;;;;5036055;28;20485;-93
2021/07/17 06:04:14;;;;;;;13.75;3.28;;;18.10;99.90;;;;;;5019321;28;20052;-95
2021/07/17 06:06:41;;;;;;;10.70;3.45;;;18.20;99.90;;;;;;5035282;28;20049;-95
2021/07/17 06:09:08;;;;;;;15.73;3.90;;;18.20;99.90;;;;;;5035199;28;20033;-93
2021/07/17 06:11:35;;;;;;;16.00;3.42;;;18.20;99.90;;;;;;5051288;28;20056;-92
2021/07/17 06:14:02;;;;;;;9.43;2.90;;;18.30;99.90;;;;;;5034950;28;20053;-92
2021/07/17 06:16:49;;;;;;;11.48;3.10;;;18.30;99.90;;;;;;5040897;28;20053;-93
2021/07/17 06:19:16;;;;;;;13.23;3.15;;;18.30;99.90;;;;;;5051287;28;20057;-96
2021/07/17 06:21:43;;;;;;;9.23;2.80;;;18.40;99.90;;;;;;5035581;28;20097;-93
2021/07/17 06:24:10;;;;;;;15.73;3.33;;;18.50;99.90;;;;;;5035459;28;20068;-93
2021/07/17 06:26:37;;;;;;;14.15;3.10;;;18.50;99.90;;;;;;5032828;28;20469;-94
2021/07/17 06:29:03;;;;;;;14.15;3.60;;;18.60;99.90;;;;;;5048403;28;20076;-91
2021/07/17 06:31:30;;;;;;;15.13;3.20;;;18.60;99.90;;;;;;5032137;28;20104;-90
2021/07/17 06:33:57;;;;;;;11.27;2.90;;;18.70;99.90;;;;;;5047973;28;20462;-90
2021/07/17 06:36:24;;;;;;;9.13;2.90;;;18.80;99.90;;;;;;5015094;28;20053;-91
2021/07/17 06:38:51;;;;;;;12.40;2.88;;;18.80;99.90;;;;;;5015333;28;20070;-88
2021/07/17 06:41:18;;;;;;;10.98;2.80;;;18.90;99.90;;;;;;4998633;28;20096;-90
2021/07/17 06:43:44;;;;;;;11.13;2.80;;;18.90;99.90;;;;;;5015122;28;20049;-91
2021/07/17 06:46:12;;;;;;;11.52;3.05;;;19.00;99.90;;;;;;5032345;28;20049;-91
2021/07/17 06:48:39;;;;;;;9.90;2.35;;;19.10;99.90;;;;;;5071702;28;20044;-90
2021/07/17 06:51:06;;;;;;;9.88;2.60;;;19.10;99.90;;;;;;5067709;28;20068;-90
2021/07/17 06:53:32;;;;;;;9.85;3.15;;;19.20;99.90;;;;;;5067786;28;20073;-92
2021/07/17 06:55:59;;;;;;;8.38;2.67;;;19.30;99.90;;;;;;5047790;28;20065;-90
2021/07/17 06:58:26;;;;;;;10.18;2.88;;;19.40;99.90;;;;;;5024405;28;20482;-90
2021/07/17 07:00:53;;;;;;;12.50;2.80;;;19.40;99.90;;;;;;5060137;28;20065;-91
2021/07/17 07:03:20;;;;;;;12.20;2.95;;;19.40;99.90;;;;;;5063297;28;20382;-90
2021/07/17 07:05:46;;;;;;;13.55;2.78;;;19.40;99.90;;;;;;5067501;28;20045;-90
2021/07/17 07:08:13;;;;;;;10.07;2.78;;;19.50;99.90;;;;;;5045086;28;20116;-90
2021/07/17 07:10:40;;;;;;;14.23;2.97;;;19.60;99.90;;;;;;5055161;28;20555;-89
2021/07/17 07:13:11;;;;;;;9.95;3.10;;;19.70;99.90;;;;;;5071090;28;20049;-91
2021/07/17 07:15:38;;;;;;;10.02;3.15;;;19.70;99.90;;;;;;5071546;28;20489;-91
2021/07/17 07:18:06;;;;;;;10.55;2.85;;;19.70;99.90;;;;;;5070693;28;20037;-79
2021/07/17 07:20:33;;;;;;;13.63;3.13;;;19.70;99.90;;;;;;5070500;28;20116;-87
2021/07/17 07:23:00;;;;;;;13.68;2.90;;;19.80;99.90;;;;;;5059330;28;20053;-85
2021/07/17 07:25:27;;;;;;;12.60;3.15;;;19.90;99.90;;;;;;5035981;28;20218;-86
2021/07/17 07:27:54;;;;;;;11.80;2.50;;;20.00;99.90;;;;;;5053729;28;20120;-88
2021/07/17 07:30:21;;;;;;;9.18;3.00;;;20.00;99.90;;;;;;5053380;28;20068;-87
2021/07/17 07:32:49;;;;;;;12.55;3.65;;;20.00;99.90;;;;;;5070604;28;20040;-89
2021/07/17 07:35:22;;;;;;;9.30;2.50;;;20.10;99.90;;;;;;5053135;28;20096;-88
2021/07/17 07:37:52;;;;;;;12.68;2.75;;;20.20;99.90;;;;;;5053730;28;20544;-89
2021/07/17 07:40:21;;;;;;;12.13;3.38;;;20.30;99.90;;;;;;5038263;28;20053;-90
2021/07/17 07:42:48;;;;;;;14.25;3.28;;;20.40;99.90;;;;;;5054264;28;20041;-89
2021/07/17 07:45:15;;;;;;;11.23;2.72;;;20.40;99.90;;;;;;5020693;28;20145;-89
2021/07/17 07:47:43;;;;;;;7.97;2.63;;;20.50;99.90;;;;;;5037627;28;20507;-89
2021/07/17 07:50:11;;;;;;;10.73;3.03;;;20.60;99.90;;;;;;5037580;28;20045;-89
2021/07/17 07:52:38;;;;;;;11.43;3.20;;;20.60;99.90;;;;;;5038411;28;20041;-89
2021/07/17 07:55:06;;;;;;;10.38;2.80;;;20.70;99.90;;;;;;5054514;28;20065;-90
2021/07/17 07:57:33;;;;;;;12.27;2.60;;;20.70;99.90;;;;;;5054227;28;20049;-93
2021/07/17 08:00:00;;;;;;;9.20;2.75;;;20.80;99.90;;;;;;5037566;28;20056;-90
2021/07/17 08:02:27;;;;;;;10.73;2.67;;;20.80;99.90;;;;;;5070533;28;20072;-90
2021/07/17 08:04:54;;;;;;;10.13;2.90;;;20.90;99.90;;;;;;5053322;28;20033;-90
2021/07/17 08:07:21;;;;;;;15.90;3.15;;;21.00;99.90;;;;;;5044675;28;20045;-89
2021/07/17 08:09:47;;;;;;;11.90;2.60;;;21.00;99.90;;;;;;5073684;28;20127;-88
2021/07/17 08:12:14;;;;;;;12.18;2.58;;;21.00;99.90;;;;;;5068903;28;20052;-87
2021/07/17 08:14:41;;;;;;;10.15;3.15;;;21.10;99.90;;;;;;5054691;28;20057;-89
2021/07/17 08:17:08;;;;;;;9.23;2.58;;;21.20;99.90;;;;;;5056964;28;20045;-89
2021/07/17 08:19:35;;;;;;;10.55;2.65;;;21.20;99.90;;;;;;5056148;28;20041;-89
2021/07/17 08:22:02;;;;;;;9.48;2.70;;;21.20;99.90;;;;;;5072609;28;20220;-87
2021/07/17 08:24:29;;;;;;;10.02;2.60;;;21.30;99.90;;;;;;5056160;28;20044;-87
2021/07/17 08:26:56;;;;;;;10.20;2.60;;;21.40;99.90;;;;;;5072575;28;20068;-87
2021/07/17 08:29:23;;;;;;;8.95;2.42;;;21.50;99.90;;;;;;5055931;28;20557;-88
2021/07/17 08:31:49;;;;;;;8.73;2.63;;;21.50;99.90;;;;;;5059062;28;20482;-89
2021/07/17 08:34:16;;;;;;;8.13;2.65;;;21.70;99.90;;;;;;5020159;28;20041;-92
2021/07/17 08:36:43;;;;;;;11.50;2.40;;;21.70;99.90;;;;;;5020228;28;20049;-88
2021/07/17 08:39:10;;;;;;;10.48;2.50;;;21.70;99.90;;;;;;5036050;28;20045;-90
2021/07/17 08:41:41;;;;;;;8.73;2.45;;;21.70;99.90;;;;;;5019806;28;20457;-89
2021/07/17 08:44:09;;;;;;;9.60;2.53;;;21.60;99.90;;;;;;5052207;28;20045;-85
2021/07/17 08:46:37;;;;;;;7.75;2.20;;;21.70;99.90;;;;;;5068899;28;20052;-84
2021/07/17 08:49:04;;;;;;;10.70;2.10;;;21.80;99.90;;;;;;5052531;28;20045;-87
2021/07/17 08:51:31;;;;;;;10.95;2.25;;;21.90;99.90;;;;;;5036522;28;20044;-85
2021/07/17 08:53:59;;;;;;;11.00;2.40;;;22.00;99.90;;;;;;5035742;28;20041;-84
2021/07/17 08:56:28;;;;;;;8.48;2.25;;;22.00;99.90;;;;;;5051030;28;20133;-87
2021/07/17 08:58:55;;;;;;;7.47;1.95;;;22.10;99.90;;;;;;5035684;28;20120;-88
2021/07/17 09:01:22;;;;;;;8.48;2.25;;;22.20;99.90;;;;;;5034860;28;20104;-85
2021/07/17 09:03:49;;;;;;;8.82;2.10;;;22.30;99.90;;;;;;5051962;28;20441;-84
2021/07/17 09:06:16;;;;;;;7.38;2.20;;;22.30;99.90;;;;;;5035544;28;20091;-86
2021/07/17 09:08:43;;;;;;;8.90;2.35;;;22.40;99.90;;;;;;5020717;28;20045;-86
2021/07/17 09:11:09;;;;;;;10.80;2.13;;;22.30;99.90;;;;;;5089422;28;20064;-86
2021/07/17 09:13:37;;;;;;;9.48;2.50;;;22.40;99.90;;;;;;5071344;28;20047;-85
2021/07/17 09:16:06;;;;;;;10.10;1.95;;;22.50;99.90;;;;;;5054611;28;20053;-88
2021/07/17 09:18:49;;;;;;;6.47;2.05;;;22.60;99.90;;;;;;5089258;28;20052;-84
2021/07/17 09:21:32;;;;;;;11.65;2.28;;;22.60;99.90;;;;;;5071455;28;20041;-83
2021/07/17 09:24:04;;;;;;;6.90;2.03;;;22.80;99.90;;;;;;5062475;28;20056;-84
2021/07/17 09:26:32;;;;;;;8.70;2.00;;;22.90;99.90;;;;;;5051416;28;20084;-86
2021/07/17 09:29:11;;;;;;;10.75;2.33;;;22.90;99.90;;;;;;5051350;28;20075;-84
2021/07/17 09:31:52;;;;;;;9.40;2.05;;;22.80;99.90;;;;;;5030730;28;20042;-86
2021/07/17 09:34:21;;;;;;;12.60;2.78;;;22.90;99.90;;;;;;5047854;28;20046;-85
2021/07/17 09:36:57;;;;;;;10.63;2.10;;;23.00;99.90;;;;;;5056411;28;20494;-84
2021/07/17 09:39:35;;;;;;;6.57;2.25;;;23.00;99.90;;;;;;5050429;28;20061;-83
2021/07/17 09:42:08;;;;;;;7.75;1.92;;;23.00;99.90;;;;;;5051284;28;20045;-87
2021/07/17 09:44:36;;;;;;;8.75;2.30;;;22.90;99.90;;;;;;5051072;28;20064;-87
2021/07/17 09:47:14;;;;;;;8.50;2.15;;;23.00;99.90;;;;;;5051659;28;20132;-89
2021/07/17 09:49:42;;;;;;;8.52;2.00;;;23.10;99.90;;;;;;5034862;28;20052;-85
2021/07/17 09:52:14;;;;;;;8.35;1.92;;;23.10;99.90;;;;;;5018794;28;20049;-85
2021/07/17 09:55:14;;;;;;;7.30;1.88;;;23.10;99.90;;;;;;5033863;28;20465;-86
2021/07/17 09:57:41;;;;;;;7.28;1.75;;;23.00;99.90;;;;;;5034612;28;20049;-87
2021/07/17 10:00:14;;;;;;;8.77;1.98;;;23.10;99.90;;;;;;5051102;28;20096;-84
2021/07/17 10:02:41;;;;;;;9.20;2.03;;;23.20;99.90;;;;;;5067742;28;20041;-84
2021/07/17 10:05:11;;;;;;;10.68;2.38;;;23.30;99.90;;;;;;5067141;28;20052;-83
2021/07/17 10:07:38;;;;;;;9.10;2.00;;;23.40;99.90;;;;;;5069257;28;20037;-83
2021/07/17 10:10:05;;;;;;;7.47;1.73;;;23.40;99.90;;;;;;5070320;28;20477;-84
2021/07/17 10:12:37;;;;;;;7.72;2.13;;;23.50;99.90;;;;;;5070267;28;20073;-84
2021/07/17 10:15:06;;;;;;;7.47;1.83;;;23.50;99.90;;;;;;5088117;28;20140;-85
2021/07/17 10:17:36;;;;;;;8.05;1.92;;;23.40;99.90;;;;;;5051153;28;20052;-86
2021/07/17 10:20:09;;;;;;;6.25;1.95;;;23.40;99.90;;;;;;5067784;28;20041;-84
2021/07/17 10:22:37;;;;;;;4.60;1.63;;;23.50;99.90;;;;;;5049875;28;20045;-74
2021/07/17 10:25:08;;;;;;;5.05;1.50;;;23.50;99.90;;;;;;5033162;28;20045;-74
2021/07/17 10:27:36;;;;;;;10.43;1.98;;;23.50;99.90;;;;;;5049689;28;20124;-79
2021/07/17 10:30:05;;;;;;;6.30;1.63;;;23.40;99.90;;;;;;5067411;28;20482;-80
2021/07/17 10:32:32;;;;;;;4.85;1.67;;;23.50;99.90;;;;;;5066960;28;20049;-80
2021/07/17 10:35:00;;;;;;;7.32;1.85;;;23.60;99.90;;;;;;5033314;28;20402;-79
2021/07/17 10:37:34;;;;;;;6.03;1.40;;;23.60;99.90;;;;;;5049645;28;20188;-84
2021/07/17 10:40:07;;;;;;;8.73;1.92;;;23.70;99.90;;;;;;5050339;28;20085;-79
2021/07/17 10:42:36;;;;;;;4.95;1.40;;;23.80;99.90;;;;;;5050200;28;20511;-80
2021/07/17 10:45:04;;;;;;;5.10;1.40;;;23.80;99.90;;;;;;5071212;28;20054;-73
2021/07/17 10:47:41;;;;;;;6.53;1.23;;;23.80;99.90;;;;;;5053410;28;20177;-73
2021/07/17 10:50:13;;;;;;;6.30;1.40;;;23.90;99.90;;;;;;5053431;28;20046;-75
2021/07/17 10:52:44;;;;;;;7.00;1.40;;;23.90;99.90;;;;;;5052663;28;20046;-72
2021/07/17 10:55:26;;;;;;;6.57;1.50;;;23.90;99.90;;;;;;5070908;28;20124;-75
2021/07/17 10:57:56;;;;;;;7.00;1.42;;;24.00;99.90;;;;;;5052530;28;20458;-74
2021/07/17 11:00:41;;;;;;;5.57;1.60;;;24.10;99.90;;;;;;5053131;28;20056;-75
2021/07/17 11:03:29;;;;;;;;;;;24.20;99.90;;;;;;5070976;28;20405;-72
2021/07/17 11:05:56;;;;;;;5.55;1.63;;;24.20;99.90;;;;;;5070092;28;20278;-74
2021/07/17 11:08:36;;;;;;;4.95;1.45;;;24.10;99.90;;;;;;5053665;28;20045;-83
2021/07/17 11:11:28;;;;;;;5.20;1.55;;;24.20;99.90;;;;;;5053895;28;20401;-83
2021/07/17 11:13:56;;;;;;;4.85;1.48;;;24.20;99.90;;;;;;5070745;28;20128;-84
2021/07/17 11:16:43;;;;;;;5.60;1.48;;;24.20;99.90;;;;;;5053436;28;20054;-83
2021/07/17 11:19:25;;;;;;;4.80;1.30;;;24.30;99.90;;;;;;5054577;28;20200;-83
2021/07/17 11:22:07;;;;;;;5.05;1.67;;;24.20;99.90;;;;;;5053565;28;20041;-84
2021/07/17 11:24:34;;;;;;;5.22;1.63;;;24.20;99.90;;;;;;5053934;28;20049;-84
2021/07/17 11:27:11;;;;;;;6.03;1.40;;;24.30;99.90;;;;;;5020396;28;20045;-84
2021/07/17 11:29:48;;;;;;;5.97;1.80;;;24.30;99.90;;;;;;5053027;28;20049;-85
2021/07/17 11:32:17;;;;;;;6.32;1.50;;;24.30;99.90;;;;;;5037092;28;20041;-84
2021/07/17 11:34:46;;;;;;;6.65;1.77;;;24.30;99.90;;;;;;5070805;28;20179;-83
2021/07/17 11:37:15;;;;;;;5.55;1.50;;;24.20;99.90;;;;;;5053149;28;20052;-83
2021/07/17 11:39:45;;;;;;;6.82;1.55;;;24.20;99.90;;;;;;5036229;28;20068;-83
2021/07/17 11:42:14;;;;;;;6.57;1.60;;;24.30;99.90;;;;;;5069223;28;20054;-83
2021/07/17 11:44:44;;;;;;;6.93;1.85;;;24.30;99.90;;;;;;5052423;28;20061;-82
2021/07/17 11:47:12;;;;;;;8.38;1.48;;;24.40;99.90;;;;;;5053012;28;20585;-82
2021/07/17 11:49:45;;;;;;;5.03;1.25;;;24.50;99.90;;;;;;5035702;28;20058;-83
2021/07/17 11:52:26;;;;;;;5.82;1.63;;;24.50;99.90;;;;;;5052490;28;20053;-82
2021/07/17 11:54:57;;;;;;;6.43;1.33;;;24.50;99.90;;;;;;5050949;28;20037;-83
2021/07/17 11:57:26;;;;;;;6.45;1.95;;;24.60;99.90;;;;;;5052252;28;20548;-84
2021/07/17 11:59:57;;;;;;;3.55;1.25;;;24.50;99.90;;;;;;5069742;28;20038;-85
2021/07/17 12:02:26;;;;;;;4.40;1.50;;;24.50;99.90;;;;;;5052748;28;20042;-89
2021/07/17 12:04:55;;;;;;;5.82;1.85;;;24.60;99.90;;;;;;5052432;28;20438;-85
2021/07/17 12:07:25;;;;;;;4.07;1.50;;;24.70;99.90;;;;;;5052554;28;20426;-84
2021/07/17 12:10:00;;;;;;;5.20;1.60;;;24.70;99.90;;;;;;5052002;28;20072;-85
2021/07/17 12:12:31;;;;;;;5.60;1.50;;;24.60;99.90;;;;;;5052516;28;20052;-86
2021/07/17 12:15:01;;;;;;;5.95;1.42;;;24.50;99.90;;;;;;5069437;28;20056;-84
2021/07/17 12:17:29;;;;;;;4.38;1.33;;;24.50;99.90;;;;;;5052571;28;20049;-86
2021/07/17 12:20:10;;;;;;;4.88;1.48;;;24.50;99.90;;;;;;5052190;28;20045;-86
2021/07/17 12:22:43;;;;;;;7.20;1.52;;;24.50;99.90;;;;;;5052557;28;20045;-86
2021/07/17 12:25:16;;;;;;;8.38;1.70;;;24.40;99.90;;;;;;5036269;28;20057;-86
2021/07/17 12:28:08;;;;;;;5.18;1.90;;;24.40;99.90;;;;;;5052643;28;20124;-89
2021/07/17 12:31:01;;;;;;;6.88;1.35;;;24.60;99.90;;;;;;5070752;28;20045;-86
2021/07/17 12:33:55;;;;;;;5.40;1.40;;;24.50;99.90;;;;;;5052514;28;20041;-86
2021/07/17 12:36:26;;;;;;;6.35;1.50;;;24.60;99.90;;;;;;5049877;28;20489;-89
2021/07/17 12:38:59;;;;;;;6.63;1.58;;;24.60;99.90;;;;;;5036824;28;20046;-86
2021/07/17 12:41:29;;;;;;;4.03;1.40;;;24.50;99.90;;;;;;5069255;28;20045;-86
2021/07/17 12:43:56;;;;;;;4.20;1.35;;;24.50;99.90;;;;;;5052099;28;20516;-87
2021/07/17 12:46:28;;;;;;;6.45;1.70;;;24.50;99.90;;;;;;5069876;28;20049;-87
2021/07/17 12:49:08;;;;;;;5.03;1.30;;;24.40;99.90;;;;;;5068422;28;20129;-86
2021/07/17 12:51:37;;;;;;;3.72;1.30;;;24.40;99.90;;;;;;5036839;28;20041;-86